^^

METAR Αεροδρομίων

σε ακτίνα 500 χλμ


 Τι είναι το METAR ??? 

Πρώτο είναι το πλησιέστερο αεροδρόμιο (Θεσ/νίκη LGTS 6χλμ) και
τέλος το πιο απομακρυσμένο (Κων/πολη LTBA 494χλμ).
Επίσης μερικές αναφορές, παρουσιάζουν λιγότερα στοιχεία γιατί
οι αρχικές είναι ελλιπείς ή έχουν λάθος μορφοποίηση.
Πηγαίνετε στις Αναφορές METAR από Μετεωρολογικούς Σταθμούς )  
Αλφαβητική Λίστα Γρήγορης Μετάβασης στα 48 Αεροδρόμια
Αλβανία: Τίρανα  Βουλγαρία: Γκόρνα Οριαχόβιτσα  Μπουργκάς  Σόφια  Φιλιππούπολη  Ελλάδα: Αθήνα  Αλεξανδρούπολη  Ανδραβίδα  Βόλος  Ελευσίνα  Ζάκυνθος  Θεσσαλονίκη  Ιωάννινα  Καβάλα  Καλαμάτα  Κέρκυρα  Κεφαλονιά  Κοζάνη  Κύθηρα
Λέσβος  Λήμνος  Μύκονος  Νάξος  Πάρος  Πάτρα  Πρέβεζα  Σάμος  Σκιάθος  Σκύρος  Σύρος  Χίος  Ιταλία: Γκαλατίνα  Μπρίντιζι  Σάντα Μαρία ντι Λέουκα  Ταράντο  Κόσοβο: Πρίστινα  Κροατία: Ντουμπρόβνικ  Μαυροβούνιο: Ποντγκόριτσα  Τιβάτ
Δ.Β.Μ: Οχρίδα  Σκόπια  Ρουμανία: Κραϊόβα  Σερβία: Κράλιεβο  Νις  Ούζιτσε  Τουρκία: Κωνσταντινούπολη  Σμύρνη Τσορλού 
(ΒΠΑ)Βάση Πολεμικής Αεροπορίας
LGTS - Αεροδρόμιο "Μακεδονία"
Θεσσαλονίκη - Κεντρική Μακεδονία - Ελλάδα
Γ.Πλάτ: 40.5167 - Γ.Μήκ: 22.9667 - Υψόμ: 7μ
Απόσταση από το Vouhead Weather: (Ν) 6χλμ
Ενημερώθηκε: 30/11/2022 08:50
Ψιλόβροχο, Κυρίως νεφελώδης
Ψιλόβροχο, Κυρίως νεφελώδης
 Άνεμος από Δ
Άνεμος: Δ 19 km/h
Θερμοκρασία: 12°C
Σημείο δρόσου: 10°C
Υγρασία: 88%
Βαρόμετρο: 1015 hPa
Περίληψη: Ψιλόβροχο
Σύννεφα: Κυρίως νεφελώδης
Ορατότητα: 10 km
Ανάλυση Νέφωσης: Διάσπαρτα νέφη 457 m
Κυρίως νεφελώδης 914 m
2022/11/30 06:50 LGTS 300650Z 26010KT 9999 DZ FEW015 BKN030 12/10 Q1015 NOSIG
LGKZ - Αεροδρόμιο "Φίλιππος"
Κοζάνη - Δυτική Μακεδονία - Ελλάδα
Γ.Πλάτ: 40.2833 - Γ.Μήκ: 21.8333 - Υψόμ: 628μ
Απόσταση από το Vouhead Weather: (ΔΝΔ) 102χλμ
Ενημερώθηκε: 30/11/2022 08:50
Ασθενής βροχή, Αχλύς, Νεφοσκεπής
Ασθενής βροχή, Αχλύς, Νεφοσκεπής
 Άνεμος από calm
Άνεμος: Απνοια
Θερμοκρασία: 5°C
Σημείο δρόσου: 4°C
Υγρασία: 93%
Βαρόμετρο: 1014 hPa
Περίληψη: Ασθενής βροχή, Αχλύς
Σύννεφα: Νεφοσκεπής
Ορατότητα: 4 km
Ανάλυση Νέφωσης: Μερικώς νεφελώδης 61 m
Κυρίως νεφελώδης 610 m
Νεφοσκεπής 2134 m
2022/11/30 06:50 LGKZ 300650Z 00000KT 4000 -RA BR SCT002 BKN020 OVC070 05/04 Q1014
 
LGKV - Αεροδρόμιο "Μέγας Αλέξανδρος"
Καβάλα(Χρυσούπολη) - Α. Μακεδονία & Θράκη - Ελλάδα
Γ.Πλάτ: 40.9167 - Γ.Μήκ: 24.6167 - Υψόμ: 5μ
Απόσταση από το Vouhead Weather: (ΑΒΑ) 144χλμ
Ενημερώθηκε: 30/11/2022 08:50
Ασθενής βροχή, Νεφοσκεπής
Ασθενής βροχή, Νεφοσκεπής
 Άνεμος από ΑΝΑ
Άνεμος: ΑΝΑ 11 km/h
Θερμοκρασία: 10°C
Ψυχρότητα Ανέμου: 8°C
Σημείο δρόσου: 8°C
Υγρασία: 88%
Βαρόμετρο: 1016 hPa
Περίληψη: Ασθενής βροχή
Σύννεφα: Νεφοσκεπής
Ορατότητα: 9 km
Ανάλυση Νέφωσης: Διάσπαρτα νέφη 305 m
Κυρίως νεφελώδης 762 m
Νεφοσκεπής 2438 m
2022/11/30 06:50 LGKV 300650Z 12006KT 9000 -RA FEW010 BKN025 OVC080 10/08 Q1016
LGBL - Αεροδρόμιο στη Νέα Αγχίαλο
Βόλος(Αλμυρός) - Θεσσαλία - Ελλάδα
Γ.Πλάτ: 39.2167 - Γ.Μήκ: 22.8000 - Υψόμ: 26μ
Απόσταση από το Vouhead Weather: (Ν) 151χλμ
Ενημερώθηκε: 30/11/2022 08:50
Νεφοσκεπής
Νεφοσκεπής
 Άνεμος από ΔΒΔ
Άνεμος: ΔΒΔ 11 km/h
Θερμοκρασία: 8°C
Ψυχρότητα Ανέμου: 6°C
Σημείο δρόσου: 7°C
Υγρασία: 93%
Βαρόμετρο: 1014 hPa
Σύννεφα: Νεφοσκεπής
Ορατότητα: 10 km
Ανάλυση Νέφωσης: Διάσπαρτα νέφη 457 m
Κυρίως νεφελώδης 762 m
Νεφοσκεπής 2134 m
2022/11/30 06:50 LGBL 300650Z 30006KT 9999 FEW015 BKN025 OVC070 08/07 Q1014
 
LGSK - Αεροδρόμ. "Αλέξανδρος Παπαδιαμάντης"
Σκιάθος - Θεσσαλία(Σποράδες) - Ελλάδα
Γ.Πλάτ: 39.1833 - Γ.Μήκ: 23.5000 - Υψόμ: 15μ
Απόσταση από το Vouhead Weather: (ΝΝΑ) 160χλμ
Ενημερώθηκε: 29/11/2022 16:50
ΜΗ ΠΡΟΣΦΑΤΟ METAR
Βροχή, Κυρίως νεφελώδης
Βροχή, Κυρίως νεφελώδης
 Άνεμος από ΒΔ
Άνεμος: ΒΔ 19 km/h
Θερμοκρασία: 11°C
Σημείο δρόσου: 9°C
Υγρασία: 88%
Βαρόμετρο: 1015 hPa
Περίληψη: Βροχή
Σύννεφα: Κυρίως νεφελώδης
Ορατότητα: 3 km
Ανάλυση Νέφωσης: Διάσπαρτα νέφη 244 m
Κυρίως νεφελώδης 610 m
2022/11/29 14:50 LGSK 291450Z 31010KT 3000 RA FEW008 BKN020 11/09 Q1015
LWSK - Αεροδρόμιο "Σκόπγιε Ιντερνάσιοναλ Έιρπορτ"
Σκόπια(Πέτροβακ) - Περιφέρεια Σκοπίων - Δ.Β.Μ
Γ.Πλάτ: 41.9667 - Γ.Μήκ: 21.6333 - Υψόμ: 239μ
Απόσταση από το Vouhead Weather: (ΒΔ) 192χλμ
Ενημερώθηκε: 30/11/2022 09:00
Ασθενής βροχή, Νεφοσκεπής
Ασθενής βροχή, Νεφοσκεπής
 Άνεμος από calm
Άνεμος: Απνοια
Θερμοκρασία: 4°C
Σημείο δρόσου: 3°C
Υγρασία: 93%
Βαρόμετρο: 1017 hPa
Περίληψη: Ασθενής βροχή
Σύννεφα: Νεφοσκεπής
Ορατότητα: 6 km
Ανάλυση Νέφωσης: Νεφοσκεπής 1219 m
2022/11/30 07:00 LWSK 300700Z 00000KT 6000 -RA OVC040 04/03 Q1017 NOSIG
 
LWOH - Αεροδρόμιο "Σεντ Πολ Δε Απόστλ"
Οχρίδα - Νοτιοδυτική Περιφέρεια - Δ.Β.Μ
Γ.Πλάτ: 41.9667 - Γ.Μήκ: 21.6333 - Υψόμ: 239μ
Απόσταση από το Vouhead Weather: (ΔΒΔ) 193χλμ
Ενημερώθηκε: 30/11/2022 09:00
Νεφοσκεπής
Νεφοσκεπής
 Άνεμος από ΒΒΔ
Άνεμος: ΒΒΔ 11 km/h
Θερμοκρασία: 5°C
Ψυχρότητα Ανέμου: 2°C
Σημείο δρόσου: 1°C
Υγρασία: 76%
Βαρόμετρο: 1014 hPa
Σύννεφα: Νεφοσκεπής
Ορατότητα: 10 km
Ανάλυση Νέφωσης: Διάσπαρτα νέφη 610 m
Νεφοσκεπής 1006 m
2022/11/30 07:00 LWOH 300700Z 34006KT 9999 FEW020 OVC033 05/01 Q1014
LGLM - Αεροδρόμιο "Ήφαιστος"
Λήμνος - Βόρειο Αιγαίο - Ελλάδα
Γ.Πλάτ: 39.9167 - Γ.Μήκ: 25.2333 - Υψόμ: 5μ
Απόσταση από το Vouhead Weather: (ΑΝΑ) 205χλμ
Ενημερώθηκε: 30/11/2022 08:50
Μερικώς νεφελώδης
Μερικώς νεφελώδης
 Άνεμος από ΑΒΑ
Άνεμος: ΑΒΑ 20 km/h
Θερμοκρασία: 14°C
Σημείο δρόσου: 10°C
Υγρασία: 77%
Βαρόμετρο: 1014 hPa
Σύννεφα: Μερικώς νεφελώδης
Ορατότητα: 10 km
Ανάλυση Νέφωσης: Διάσπαρτα νέφη 305 m
Μερικώς νεφελώδης 762 m
2022/11/30 06:50 LGLM 300650Z 07011KT 9999 FEW010 SCT025 14/10 Q1014
 
LGIO - Αεροδρόμιο "Βασιλεύς Πύρρος"
Ιωάννινα - Ήπειρος - Ελλάδα
Γ.Πλάτ: 39.7000 - Γ.Μήκ: 20.8167 - Υψόμ: 476μ
Απόσταση από το Vouhead Weather: (ΔΝΔ) 207χλμ
Ενημερώθηκε: 30/11/2022 08:50
Ασθενής βροχή
Ασθενής βροχή
 Άνεμος από Μεταβλητός
Άνεμος: Μεταβλητός 4 km/h
Θερμοκρασία: 10°C
Σημείο δρόσου: 4°C
Υγρασία: 67%
Βαρόμετρο: 1010 hPa
Περίληψη: Ασθενής βροχή
2022/11/30 06:50 LGIO 300650Z AUTO VRB02KT //// -RA ////// 10/04 Q1010 RE//
LGSY - Αεροδρόμιο στη Σκύρο
Σκύρος - Θεσσαλία(Σποράδες) - Ελλάδα
Γ.Πλάτ: 38.9667 - Γ.Μήκ: 24.4833 - Υψόμ: 15μ
Απόσταση από το Vouhead Weather: (ΝΑ) 220χλμ
Ενημερώθηκε: 30/11/2022 08:50
Κυρίως νεφελώδης
Κυρίως νεφελώδης
 Άνεμος από Α
Άνεμος: Α 19 km/h
Θερμοκρασία: 15°C
Σημείο δρόσου: 12°C
Υγρασία: 82%
Βαρόμετρο: 1013 hPa
Σύννεφα: Κυρίως νεφελώδης
Ορατότητα: 10 km
Ανάλυση Νέφωσης: Διάσπαρτα νέφη 305 m
Κυρίως νεφελώδης 610 m
2022/11/30 06:50 LGSY 300650Z 09010KT 9999 FEW010 BKN020 15/12 Q1013 RMK BKN080 BKN180 BLU
 
LBPD - Αεροδρόμιο στη Φιλιππούπολη
Φιλιππούπολη(Κρούμοβο) - Πλόβντιβ - Βουλγαρία
Γ.Πλάτ: 42.1333 - Γ.Μήκ: 24.8000 - Υψόμ: 185μ
Απόσταση από το Vouhead Weather: (ΒΑ) 231χλμ
Ενημερώθηκε: 30/11/2022 09:00
Ασθενής βροχή, Νεφοσκεπής
Ασθενής βροχή, Νεφοσκεπής
 Άνεμος από ΑΝΑ
Άνεμος: ΑΝΑ 19 km/h
Θερμοκρασία: 7°C
Ψυχρότητα Ανέμου: 4°C
Σημείο δρόσου: 7°C
Υγρασία: 100%
Βαρόμετρο: 1020 hPa
Περίληψη: Ασθενής βροχή
Σύννεφα: Νεφοσκεπής
Ορατότητα: 10 km
Ανάλυση Νέφωσης: Διάσπαρτα νέφη 366 m
Κυρίως νεφελώδης 549 m
Νεφοσκεπής 732 m
2022/11/30 07:00 LBPD 300700Z AUTO 12010KT 9999 -RA FEW012/// BKN018/// OVC024/// 07/07 Q1020 NOSIG
LBSF - Αεροδρόμιο στη Σόφια
Σόφια(Βράτσντεμπνα) - Μητρ. περ. Σόφιας - Βουλγαρία
Γ.Πλάτ: 42.6500 - Γ.Μήκ: 23.3833 - Υψόμ: 595μ
Απόσταση από το Vouhead Weather: (Β) 234χλμ
Ενημερώθηκε: 30/11/2022 09:00
Νεφοσκεπής
Νεφοσκεπής
 Άνεμος από calm
Άνεμος: Απνοια
Θερμοκρασία: 3°C
Σημείο δρόσου: 2°C
Υγρασία: 93%
Βαρόμετρο: 1019 hPa
Σύννεφα: Νεφοσκεπής
Ορατότητα: 10 km
Ανάλυση Νέφωσης: Νεφοσκεπής 457 m
2022/11/30 07:00 LBSF 300700Z 00000KT 9999 OVC015 03/02 Q1019 NOSIG
 
LGAL - Αεροδρόμιο "Δημόκριτος"
Αλεξανδρούπολη - Α. Μακεδονία & Θράκη - Ελλάδα
Γ.Πλάτ: 40.8500 - Γ.Μήκ: 25.9167 - Υψόμ: 3μ
Απόσταση από το Vouhead Weather: (Α) 250χλμ
Ενημερώθηκε: 30/11/2022 08:50
Κυρίως νεφελώδης
Κυρίως νεφελώδης
 Άνεμος από ΒΑ
Άνεμος: ΒΑ 28 km/h, Ριπή: 46 km/h
Θερμοκρασία: 12°C
Σημείο δρόσου: 8°C
Υγρασία: 77%
Βαρόμετρο: 1016 hPa
Σύννεφα: Κυρίως νεφελώδης
Ορατότητα: 10 km
Ανάλυση Νέφωσης: Κυρίως νεφελώδης 305 m
Κυρίως νεφελώδης 762 m
2022/11/30 06:50 LGAL 300650Z 04015G25KT 9999 BKN010 BKN025 12/08 Q1016
BKPR - Αεροδρόμιο "Αντεμ Γιασάρι"
Πρίστινα - Πρίστινα - Κόσοβο
(Ελληνικό Υπουργείο Εξωτερικών, σχετικά με το Κόσοβο)
Γ.Πλάτ: 42.5833 - Γ.Μήκ: 21.0333 - Υψόμ: 576μ
Απόσταση από το Vouhead Weather: (ΒΔ) 276χλμ
Ενημερώθηκε: 30/11/2022 09:00
Ασθενής βροχή, Κυρίως νεφελώδης
Ασθενής βροχή, Κυρίως νεφελώδης
 Άνεμος από Μεταβλητός
Άνεμος: Μεταβλητός 2 km/h
Θερμοκρασία: 2°C
Σημείο δρόσου: 2°C
Υγρασία: 100%
Βαρόμετρο: 1016 hPa
Περίληψη: Ασθενής βροχή
Σύννεφα: Κυρίως νεφελώδης
Ορατότητα: 7 km
Ανάλυση Νέφωσης: Μερικώς νεφελώδης 366 m
Κυρίως νεφελώδης 1006 m
2022/11/30 07:00 BKPR 300700Z VRB01KT 7000 -RA SCT012 BKN033 02/02 Q1016 NOSIG
 
LGKR - Αεροδρόμιο "Ιωάννης Καποδίστριας"
Κέρκυρα - Ιόνιοι Νήσοι - Ελλάδα
Γ.Πλάτ: 39.6000 - Γ.Μήκ: 19.9167 - Υψόμ: 2μ
Απόσταση από το Vouhead Weather: (ΔΝΔ) 281χλμ
Ενημερώθηκε: 30/11/2022 08:50
Κυρίως νεφελώδης
Κυρίως νεφελώδης
 Άνεμος από Α
Άνεμος: Α 9 km/h
Θερμοκρασία: 15°C
Σημείο δρόσου: 9°C
Υγρασία: 68%
Βαρόμετρο: 1007 hPa
Σύννεφα: Κυρίως νεφελώδης
Ορατότητα: 10 km
Ανάλυση Νέφωσης: Διάσπαρτα νέφη 610 m
Μερικώς νεφελώδης 1219 m
Κυρίως νεφελώδης 2438 m
2022/11/30 06:50 LGKR 300650Z 08005KT 9999 FEW020 SCT040 BKN080 15/09 Q1007 NOSIG
LATI - Αεροδρόμιο "Μάδερ Τερέζα"
Τίρανα(Ρίνα) - Τίρανα - Αλβανία
Γ.Πλάτ: 41.3167 - Γ.Μήκ: 19.7667 - Υψόμ: 90μ
Απόσταση από το Vouhead Weather: (ΔΒΔ) 282χλμ
Ενημερώθηκε: 30/11/2022 08:50
Ασθενής βροχή, Κυρίως νεφελώδης
Ασθενής βροχή, Κυρίως νεφελώδης
 Άνεμος από ΒΒΔ
Άνεμος: ΒΒΔ 7 km/h
Θερμοκρασία: 8°C
Ψυχρότητα Ανέμου: 7°C
Σημείο δρόσου: 5°C
Υγρασία: 82%
Βαρόμετρο: 1010 hPa
Περίληψη: Ασθενής βροχή
Σύννεφα: Κυρίως νεφελώδης
Ορατότητα: 7 km
Ανάλυση Νέφωσης: Διάσπαρτα νέφη 1097 m
Μερικώς νεφελώδης 1859 m
Κυρίως νεφελώδης 2316 m
2022/11/30 06:50 LATI 300650Z 34004KT 7000 -RA FEW036 SCT061 BKN076 08/05 Q1010 NOSIG
 
LGEL - Αεροδρόμιο στην Ελευσίνα(ΒΠΑ)
Ελευσίνα - Αττική - Ελλάδα
Γ.Πλάτ: 38.0667 - Γ.Μήκ: 23.5500 - Υψόμ: 31μ
Απόσταση από το Vouhead Weather: (Ν) 282χλμ
Ενημερώθηκε: 30/11/2022 08:50
Ασθενής βροχή, Κυρίως νεφελώδης
Ασθενής βροχή, Κυρίως νεφελώδης
 Άνεμος από ΒΔ
Άνεμος: ΒΔ 7 km/h
Θερμοκρασία: 12°C
Σημείο δρόσου: 9°C
Υγρασία: 82%
Βαρόμετρο: 1012 hPa
Περίληψη: Ασθενής βροχή
Σύννεφα: Κυρίως νεφελώδης
Ορατότητα: 10 km
Ανάλυση Νέφωσης: Διάσπαρτα νέφη 549 m
Μερικώς νεφελώδης 762 m
Κυρίως νεφελώδης 2134 m
2022/11/30 06:50 LGEL 300650Z 31004KT 9999 -RA FEW018 SCT025 BKN070 12/09 Q1012
LGPZ - Αεροδρόμιο στη Πρέβεζα
Πρέβεζα(Ακτιον) - Ήπειρος - Ελλάδα
Γ.Πλάτ: 38.6167 - Γ.Μήκ: 20.7667 - Υψόμ: 4μ
Απόσταση από το Vouhead Weather: (ΝΔ) 288χλμ
Ενημερώθηκε: 30/11/2022 08:50
Κυρίως νεφελώδης
Κυρίως νεφελώδης
 Άνεμος από Α
Άνεμος: Α 33 km/h, Ριπή: 52 km/h
Θερμοκρασία: 14°C
Σημείο δρόσου: 7°C
Υγρασία: 63%
Βαρόμετρο: 1009 hPa
Σύννεφα: Κυρίως νεφελώδης
Ορατότητα: 10 km
Ανάλυση Νέφωσης: Μερικώς νεφελώδης 457 m
Κυρίως νεφελώδης 914 m
Κυρίως νεφελώδης 2438 m
2022/11/30 06:50 LGPZ 300650Z 09018G28KT 9999 SCT015 BKN030 BKN080 14/07 Q1009
 
LGRX - Αεροδρόμιο στη Πάτρα(ΒΠΑ)
Πάτρα(Αραξος) - Δυτική Ελλάδα - Ελλάδα
Γ.Πλάτ: 38.1667 - Γ.Μήκ: 21.4167 - Υψόμ: 15μ
Απόσταση από το Vouhead Weather: (ΝΝΔ) 299χλμ
Ενημερώθηκε: 30/11/2022 08:50
Κυρίως νεφελώδης
Κυρίως νεφελώδης
 Άνεμος από ΑΒΑ
Άνεμος: ΑΒΑ 13 km/h
Θερμοκρασία: 13°C
Σημείο δρόσου: 11°C
Υγρασία: 88%
Βαρόμετρο: 1009 hPa
Σύννεφα: Κυρίως νεφελώδης
Ορατότητα: 10 km
Ανάλυση Νέφωσης: Μερικώς νεφελώδης 762 m
Κυρίως νεφελώδης 2134 m
2022/11/30 06:50 LGRX 300650Z 06007KT 9999 SCT025 BKN070 13/11 Q1009
LGAV - Αεροδρόμιο "Ελευθέριος Βεμιζέλος"
Αθήνα(Σπάτα) - Αττική - Ελλάδα
Γ.Πλάτ: 37.9333 - Γ.Μήκ: 23.9500 - Υψόμ: 94μ
Απόσταση από το Vouhead Weather: (ΝΝΑ) 305χλμ
Ενημερώθηκε: 30/11/2022 08:50
Ψιλόβροχο, Κυρίως νεφελώδης
Ψιλόβροχο, Κυρίως νεφελώδης
 Άνεμος από ΒΒΑ
Άνεμος: ΒΒΑ 17 km/h
Θερμοκρασία: 13°C
Σημείο δρόσου: 9°C
Υγρασία: 77%
Βαρόμετρο: 1012 hPa
Περίληψη: Ψιλόβροχο
Σύννεφα: Κυρίως νεφελώδης
Ορατότητα: 9 km
Ανάλυση Νέφωσης: Διάσπαρτα νέφη 610 m
Κυρίως νεφελώδης 914 m
2022/11/30 06:50 LGAV 300650Z 02009KT 9000 DZ FEW020 BKN030 13/09 Q1012 NOSIG
 
LYNI - Αεροδρόμιο "Κονσταντίν Δε Γκρέιτ"
Νις - Νότια και Ανατολική Σερβία - Σερβία
Γ.Πλάτ: 43.3167 - Γ.Μήκ: 21.8833 - Υψόμ: 202μ
Απόσταση από το Vouhead Weather: (ΒΒΔ) 319χλμ
Ενημερώθηκε: 30/11/2022 09:00
Κυρίως νεφελώδης
Κυρίως νεφελώδης
 Άνεμος από ΒΑ
Άνεμος: ΒΑ 17 km/h
Θερμοκρασία: 5°C
Ψυχρότητα Ανέμου: 2°C
Σημείο δρόσου: 2°C
Υγρασία: 81%
Βαρόμετρο: 1019 hPa
Σύννεφα: Κυρίως νεφελώδης
Ορατότητα: 10 km
Ανάλυση Νέφωσης: Διάσπαρτα νέφη 518 m
Κυρίως νεφελώδης 1524 m
2022/11/30 07:00 LYNI 300700Z 05009KT 020V080 9999 FEW017 BKN050 05/02 Q1019 NOSIG
LGAD - Αεροδρόμιο στην Ανδραβίδα(ΒΠΑ)
Ανδραβίδα - Δυτική Ελλάδα - Ελλάδα
Γ.Πλάτ: 37.9167 - Γ.Μήκ: 21.2667 - Υψόμ: 12μ
Απόσταση από το Vouhead Weather: (ΝΝΔ) 329χλμ
Ενημερώθηκε: 30/11/2022 08:50
Μερικώς νεφελώδης
Μερικώς νεφελώδης
 Άνεμος από ΑΝΑ
Άνεμος: ΑΝΑ 9 km/h
Θερμοκρασία: 13°C
Σημείο δρόσου: 10°C
Υγρασία: 82%
Βαρόμετρο: 1008 hPa
Σύννεφα: Μερικώς νεφελώδης
Ορατότητα: 10 km
Ανάλυση Νέφωσης: Κυρίως νεφελώδης 762 m
Μερικώς νεφελώδης 2438 m
2022/11/30 06:50 LGAD 300650Z 11005KT 9999 BKN025 SCT080 13/10 Q1008
 
LGKF - Αεροδρόμιο στην Κεφαλονιά
Κεφαλονιά - Ιόνιοι Νήσοι - Ελλάδα
Γ.Πλάτ: 38.1167 - Γ.Μήκ: 20.5000 - Υψόμ: 18μ
Απόσταση από το Vouhead Weather: (ΝΔ) 346χλμ
Ενημερώθηκε: 30/11/2022 08:50
Καταιγίδα, Κυρίως νεφελώδης
Καταιγίδα, Κυρίως νεφελώδης
 Άνεμος από ΑΝΑ
Άνεμος: ΑΝΑ 28 km/h
Θερμοκρασία: 15°C
Σημείο δρόσου: 10°C
Υγρασία: 72%
Βαρόμετρο: 1007 hPa
Περίληψη: Καταιγίδα
Σύννεφα: Κυρίως νεφελώδης
Ορατότητα: 9 km
Ανάλυση Νέφωσης: Μερικώς νεφελώδης 366 m
Διάσπαρτα νέφη 488 m
Μερικώς νεφελώδης 610 m
Κυρίως νεφελώδης 2134 m
2022/11/30 06:50 LGKF 300650Z 11015KT 9000 4000E TS SCT012 FEW016CB SCT020 BKN070 15/10 Q1007
LGMT - Αεροδρόμιο "Οδυσσέας Ελύτης"
Λέσβος - Βόρειο Αιγαίο - Ελλάδα
Γ.Πλάτ: 39.0500 - Γ.Μήκ: 26.6000 - Υψόμ: 17μ
Απόσταση από το Vouhead Weather: (ΑΝΑ) 353χλμ
Ενημερώθηκε: 30/11/2022 08:50
Διάσπαρτα νέφη
Διάσπαρτα νέφη
 Άνεμος από ΝΔ
Άνεμος: ΝΔ 9 km/h
Θερμοκρασία: 10°C
Ψυχρότητα Ανέμου: 9°C
Σημείο δρόσου: 8°C
Υγρασία: 88%
Βαρόμετρο: 1014 hPa
Σύννεφα: Διάσπαρτα νέφη
Ορατότητα: 9 km
Ανάλυση Νέφωσης: Διάσπαρτα νέφη 610 m
2022/11/30 06:50 LGMT 300650Z 22005KT 9000 FEW020 10/08 Q1014
 
LGZA - Αεροδρόμιο "Διονύσιος Σολωμός"
Ζάκυνθος - Ιόνιοι Νήσοι - Ελλάδα
Γ.Πλάτ: 37.7500 - Γ.Μήκ: 20.8667 - Υψόμ: 3μ
Απόσταση από το Vouhead Weather: (ΝΝΔ) 362χλμ
Ενημερώθηκε: 30/11/2022 08:50
Έντονη καταιγίδα, Βροχή, Κυρίως νεφελώδης
Έντονη καταιγίδα, Βροχή, Κυρίως νεφελώδης
 Άνεμος από ΑΝΑ
Άνεμος: ΑΝΑ 20 km/h
Θερμοκρασία: 14°C
Σημείο δρόσου: 12°C
Υγρασία: 88%
Βαρόμετρο: 1008 hPa
Περίληψη: Έντονη καταιγίδα, Βροχή
Σύννεφα: Κυρίως νεφελώδης
Ορατότητα: 5 km
Ανάλυση Νέφωσης: Διάσπαρτα νέφη 488 m
Διάσπαρτα νέφη 549 m
Κυρίως νεφελώδης 610 m
Κυρίως νεφελώδης 2134 m
2022/11/30 06:50 LGZA 300650Z 12011KT 5000 +TSRA FEW016CB FEW018TCU BKN020 BKN070 14/12 Q1008
LBGO - Αεροδρόμιο στη Γκόρνα Οριαχόβιτσα
Γκόρνα Οριαχόβιτσα - Βέλικο Τάρνοβο - Βουλγαρία
Γ.Πλάτ: 43.1500 - Γ.Μήκ: 25.7167 - Υψόμ: 86μ
Απόσταση από το Vouhead Weather: (ΒΑ) 366χλμ
Ενημερώθηκε: 30/11/2022 09:00
Ασθενής βροχή, Αχλύς, Νεφοσκεπής
Ασθενής βροχή, Αχλύς, Νεφοσκεπής
 Άνεμος από Δ
Άνεμος: Δ 6 km/h
Θερμοκρασία: 3°C
Σημείο δρόσου: 3°C
Υγρασία: 100%
Βαρόμετρο: 1023 hPa
Περίληψη: Ασθενής βροχή, Αχλύς
Σύννεφα: Νεφοσκεπής
Ορατότητα: 3 km
Ανάλυση Νέφωσης: Νεφοσκεπής 91 m
2022/11/30 07:00 LBGO 300700Z AUTO 27003KT 2900 -RA BR OVC003/// 03/03 Q1023 TEMPO 2000 DZ BR
 
LGHI - Αεροδρόμιο "Όμηρος"
Χίος - Ιόνιοι Νήσοι - Ελλάδα
Γ.Πλάτ: 38.3167 - Γ.Μήκ: 26.1167 - Υψόμ: 4μ
Απόσταση από το Vouhead Weather: (ΝΑ) 368χλμ
Ενημερώθηκε: 30/11/2022 08:50
Διάσπαρτα νέφη
Διάσπαρτα νέφη
 Άνεμος από Ν
Άνεμος: Ν 4 km/h
Θερμοκρασία: 9°C
Σημείο δρόσου: 9°C
Υγρασία: 100%
Βαρόμετρο: 1013 hPa
Σύννεφα: Διάσπαρτα νέφη
Ορατότητα: 9 km
Ανάλυση Νέφωσης: Διάσπαρτα νέφη 610 m
2022/11/30 06:50 LGHI 300650Z 19002KT 9000 FEW020 09/09 Q1013
LYPG - Αεροδρόμιο στη Ποντγκόριτσα
Ποντγκόριτσα - Γκολούμποβτσι - Μαυροβούνιο
Γ.Πλάτ: 42.3667 - Γ.Μήκ: 19.2500 - Υψόμ: 43μ
Απόσταση από το Vouhead Weather: (ΒΔ) 369χλμ
Ενημερώθηκε: 30/11/2022 09:00
Διάσπαρτα νέφη
Διάσπαρτα νέφη
 Άνεμος από calm
Άνεμος: Απνοια
Θερμοκρασία: 5°C
Σημείο δρόσου: 2°C
Υγρασία: 81%
Βαρόμετρο: 1014 hPa
Σύννεφα: Διάσπαρτα νέφη
Ορατότητα: 10 km
Ανάλυση Νέφωσης: Διάσπαρτα νέφη 2743 m
2022/11/30 07:00 LYPG 300700Z 00000KT 9999 FEW090 05/02 Q1014 NOSIG
 
LGSO - Αεροδρόμιο "Δημήτριος Βικέλας"
Σύρος - Νότιο Αιγαίο - Ελλάδα
Γ.Πλάτ: 37.4167 - Γ.Μήκ: 24.9500 - Υψόμ: 72μ
Απόσταση από το Vouhead Weather: (ΝΝΑ) 390χλμ
Ενημερώθηκε: 30/11/2022 08:50
Διάσπαρτα νέφη
Διάσπαρτα νέφη
 Άνεμος από ΑΝΑ
Άνεμος: ΑΝΑ 17 km/h
Θερμοκρασία: 16°C
Σημείο δρόσου: 11°C
Υγρασία: 72%
Βαρόμετρο: 1012 hPa
Σύννεφα: Διάσπαρτα νέφη
Ορατότητα: 10 km
Ανάλυση Νέφωσης: Διάσπαρτα νέφη 488 m
2022/11/30 06:50 LGSO 300650Z 11009KT 9999 FEW016 16/11 Q1012
LGKL - Αεροδρόμιο στη Καλαμάτα(ΒΠΑ)
Καλαμάτα - Πελοπόννησος - Ελλάδα
Γ.Πλάτ: 37.0667 - Γ.Μήκ: 22.0167 - Υψόμ: 8μ
Απόσταση από το Vouhead Weather: (ΝΝΔ) 398χλμ
Ενημερώθηκε: 30/11/2022 08:50
Μερικώς νεφελώδης
Μερικώς νεφελώδης
 Άνεμος από ΒΒΔ
Άνεμος: ΒΒΔ 7 km/h
Θερμοκρασία: 11°C
Σημείο δρόσου: 11°C
Υγρασία: 100%
Βαρόμετρο: 1009 hPa
Σύννεφα: Μερικώς νεφελώδης
Ορατότητα: 8 km
Ανάλυση Νέφωσης: Διάσπαρτα νέφη 549 m
Μερικώς νεφελώδης 762 m
2022/11/30 06:50 LGKL 300650Z 34004KT 8000 FEW018 SCT025 11/11 Q1009
 
LIBY - Αεροδρόμιο στη Σάντα Μαρία ντι Λέουκα
Σάντα Μαρία ντι Λέουκα - Απουλία(Λέτσε) - Ιταλία
Γ.Πλάτ: 39.8167 - Γ.Μήκ: 18.3500 - Υψόμ: 112μ
Απόσταση από το Vouhead Weather: (Δ) 402χλμ
Ενημερώθηκε: 30/11/2022 08:55
Εντονα πτωτική
Εντονα πτωτική
 
2022/11/30 06:55 LIBY 300655Z ///11KT 8000 -RA SCT013 SCT015TCU 14/12 Q1006 RMK OVC QUK 5 QUL 3 E VIS MAR 8 KM VIS MIN 8000
LGMK - Αεροδρόμιο στη Μύκονο
Μύκονος - Νότιο Αιγαίο - Ελλάδα
Γ.Πλάτ: 37.4333 - Γ.Μήκ: 25.3500 - Υψόμ: 123μ
Απόσταση από το Vouhead Weather: (ΝΝΑ) 404χλμ
Ενημερώθηκε: 30/11/2022 08:50
Μερικώς νεφελώδης
Μερικώς νεφελώδης
 Άνεμος από ΑΝΑ
Άνεμος: ΑΝΑ 9 km/h
Θερμοκρασία: 16°C
Σημείο δρόσου: 11°C
Υγρασία: 72%
Βαρόμετρο: 1012 hPa
Σύννεφα: Μερικώς νεφελώδης
Ορατότητα: 10 km
Ανάλυση Νέφωσης: Διάσπαρτα νέφη 427 m
Μερικώς νεφελώδης 1219 m
2022/11/30 06:50 LGMK 300650Z 12005KT 9999 FEW014 SCT040 16/11 Q1012
 
LYTV - Αεροδρόμιο στο Τιβάτ
Τιβάτ - Τιβάτ - Μαυροβούνιο
Γ.Πλάτ: 42.3833 - Γ.Μήκ: 18.7167 - Υψόμ: 5μ
Απόσταση από το Vouhead Weather: (ΔΒΔ) 408χλμ
Ενημερώθηκε: 30/11/2022 09:00
Αίθριος
Αίθριος
 Άνεμος από Μεταβλητός
Άνεμος: Μεταβλητός 2 km/h
Θερμοκρασία: 7°C
Σημείο δρόσου: 5°C
Υγρασία: 87%
Βαρόμετρο: 1011 hPa
Περίληψη: Αίθριος
Ορατότητα: πάνω από 10 km
2022/11/30 07:00 LYTV 300700Z VRB01KT CAVOK 07/05 Q1011 NOSIG
LIBN - Αεροδρόμιο στη Γκαλατίνα(ΒΠΑ)
Γκαλατίνα - Απουλία(Λέτσε) - Ιταλία
Γ.Πλάτ: 40.2167 - Γ.Μήκ: 18.1333 - Υψόμ: 61μ
Απόσταση από το Vouhead Weather: (Δ) 412χλμ
Ενημερώθηκε: 30/11/2022 08:55
Ασθενές ψιλόβροχο, Μερικώς νεφελώδης
Ασθενές ψιλόβροχο, Μερικώς νεφελώδης
 Άνεμος από ΒΑ
Άνεμος: ΒΑ 13 km/h
Θερμοκρασία: 11°C
Σημείο δρόσου: 9°C
Υγρασία: 88%
Βαρόμετρο: 1008 hPa
Περίληψη: Ασθενές ψιλόβροχο
Σύννεφα: Μερικώς νεφελώδης
Ορατότητα: 10 km
Ανάλυση Νέφωσης: Διάσπαρτα νέφη 762 m
Μερικώς νεφελώδης 1219 m
2022/11/30 06:55 LIBN 300655Z 05007KT 9999 -DZ FEW025 SCT040 11/09 Q1008
 
LYKV - Αεροδρόμιο στο Κράλιεβο & Λάντεβτσι
Κράλιεβο(Όμπρβα) - Σουμαντίγια και Δ. Σερβία - Σερβία
Γ.Πλάτ: 43.8167 - Γ.Μήκ: 20.5833 - Υψόμ: 209μ
Απόσταση από το Vouhead Weather: (ΒΒΔ) 412χλμ
Ενημερώθηκε: 30/11/2022 09:00
Νεφοσκεπής
Νεφοσκεπής
 Άνεμος από ΝΝΑ
Άνεμος: ΝΝΑ 6 km/h
Θερμοκρασία: 4°C
Σημείο δρόσου: 3°C
Υγρασία: 93%
Βαρόμετρο: 1019 hPa
Σύννεφα: Νεφοσκεπής
Ορατότητα: 10 km
Ανάλυση Νέφωσης: Μερικώς νεφελώδης 518 m
Νεφοσκεπής 823 m
2022/11/30 07:00 LYKV 300700Z 15003KT 9999 SCT017 OVC027 04/03 Q1019 NOSIG
LTBU - Αεροδρόμιο στο Τσορλού(ΒΠΑ)
Τσορλού - Μαρμαράς(Τεκιρντάγ-Ραιδεστός) - Τουρκία
Γ.Πλάτ: 41.1167 - Γ.Μήκ: 27.9167 - Υψόμ: 173μ
Απόσταση από το Vouhead Weather: (Α) 420χλμ
Ενημερώθηκε: 30/11/2022 08:50
Κυρίως νεφελώδης
Κυρίως νεφελώδης
 Άνεμος από ΒΑ
Άνεμος: ΒΑ 19 km/h
Θερμοκρασία: 11°C
Σημείο δρόσου: 11°C
Υγρασία: 100%
Βαρόμετρο: 1017 hPa
Σύννεφα: Κυρίως νεφελώδης
Ορατότητα: 10 km
Ανάλυση Νέφωσης: Κυρίως νεφελώδης 213 m
Κυρίως νεφελώδης 792 m
2022/11/30 06:50 LTBU 300650Z 04010KT 9999 BKN007 BKN026 11/11 Q1017
 
LRCV - Αεροδρόμιο στη Κραϊόβα
Κραϊόβα - Δολζ - Ρουμανία
Γ.Πλάτ: 44.3167 - Γ.Μήκ: 23.8833 - Υψόμ: 191μ
Απόσταση από το Vouhead Weather: (Β) 424χλμ
Ενημερώθηκε: 30/11/2022 09:00
Εντονα πτωτική
Εντονα πτωτική
 Άνεμος από ΑΒΑ
Άνεμος: ΑΒΑ 28 km/h
Ορατότητα: 10 km
2022/11/30 07:00 LRCV 300700Z 07015KT 9999 03/// Q1023
LIBR - Αεροδρόμιο στο Μπρίντιζι
(Ανεπίσημο όνομα αεροδρομίου: Ντελ Σαλέντο)
Μπρίντιζι(Πάπολα-Καζάλε) - Απουλία(Μπρίντιζι) - Ιταλία
Γ.Πλάτ: 40.6500 - Γ.Μήκ: 17.9500 - Υψόμ: 10μ
Απόσταση από το Vouhead Weather: (Δ) 424χλμ
Ενημερώθηκε: 30/11/2022 08:50
Αίθριος
Αίθριος
 Άνεμος από ΑΒΑ
Άνεμος: ΑΒΑ 22 km/h
Θερμοκρασία: 15°C
Σημείο δρόσου: 8°C
Υγρασία: 63%
Βαρόμετρο: 1008 hPa
Περίληψη: Αίθριος
Ορατότητα: πάνω από 10 km
2022/11/30 06:50 LIBR 300650Z 07012KT CAVOK 15/08 Q1008
 
LBBG - Αεροδρόμιο στo Μπουργκάς
Μπουργκάς(Σαράφοβο) - Μπουργκάς - Βουλγαρία
Γ.Πλάτ: 42.5000 - Γ.Μήκ: 27.4833 - Υψόμ: 28μ
Απόσταση από το Vouhead Weather: (ΑΒΑ) 432χλμ
Ενημερώθηκε: 30/11/2022 09:00
Ασθενής βροχή, Νεφοσκεπής
Ασθενής βροχή, Νεφοσκεπής
 Άνεμος από ΒΑ
Άνεμος: ΒΑ 30 km/h
Θερμοκρασία: 7°C
Ψυχρότητα Ανέμου: 3°C
Σημείο δρόσου: 5°C
Υγρασία: 87%
Βαρόμετρο: 1020 hPa
Περίληψη: Ασθενής βροχή
Σύννεφα: Νεφοσκεπής
Ορατότητα: 8 km
Ανάλυση Νέφωσης: Μερικώς νεφελώδης 518 m
Κυρίως νεφελώδης 1006 m
Νεφοσκεπής 1280 m
2022/11/30 07:00 LBBG 300700Z 04016KT 8000 -RA SCT017 BKN033 OVC042 07/05 Q1020 NOSIG
LGPA - Αεροδρόμιο "Παντελαίειο"
Πάρος - Νότιο Αιγαίο - Ελλάδα
Γ.Πλάτ: 37.0000 - Γ.Μήκ: 25.0667 - Υψόμ: 36μ
Απόσταση από το Vouhead Weather: (ΝΝΑ) 436χλμ
Ενημερώθηκε: 30/11/2022 08:50
Διάσπαρτα νέφη
Διάσπαρτα νέφη
 Άνεμος από ΝΑ
Άνεμος: ΝΑ 20 km/h
Θερμοκρασία: 17°C
Σημείο δρόσου: 12°C
Υγρασία: 73%
Βαρόμετρο: 1012 hPa
Σύννεφα: Διάσπαρτα νέφη
Ορατότητα: 10 km
Ανάλυση Νέφωσης: Διάσπαρτα νέφη 549 m
2022/11/30 06:50 LGPA 300650Z 13011KT 9999 FEW018 17/12 Q1012
 
LGNX - Αεροδρόμιο στη Νάξο
Νάξος - Νότιο Αιγαίο - Ελλάδα
Γ.Πλάτ: 37.0833 - Γ.Μήκ: 25.3667 - Υψόμ: 4μ
Απόσταση από το Vouhead Weather: (ΝΝΑ) 439χλμ
Ενημερώθηκε: 30/11/2022 08:50
Μερικώς νεφελώδης
Μερικώς νεφελώδης
 Άνεμος από Μεταβλητός
Άνεμος: Μεταβλητός 2 km/h
Θερμοκρασία: 12°C
Σημείο δρόσου: 11°C
Υγρασία: 94%
Βαρόμετρο: 1012 hPa
Σύννεφα: Μερικώς νεφελώδης
Ορατότητα: 10 km
Ανάλυση Νέφωσης: Διάσπαρτα νέφη 549 m
Μερικώς νεφελώδης 762 m
2022/11/30 06:50 LGNX 300650Z VRB01KT 9999 FEW018 SCT025 12/11 Q1012
LTBJ - Αεροδρόμιο "Αντνάν Μεντερές"
Σμύρνη - Αιγαίο(Σμύρνη) - Τουρκία
Γ.Πλάτ: 38.2667 - Γ.Μήκ: 27.1333 - Υψόμ: 120μ
Απόσταση από το Vouhead Weather: (ΝΑ) 439χλμ
Ενημερώθηκε: 30/11/2022 08:50
Κυρίως νεφελώδης
Κυρίως νεφελώδης
 Άνεμος από calm
Άνεμος: Απνοια
Θερμοκρασία: 9°C
Σημείο δρόσου: 9°C
Υγρασία: 100%
Βαρόμετρο: 1013 hPa
Σύννεφα: Κυρίως νεφελώδης
Ορατότητα: 6 km
Ανάλυση Νέφωσης: Μερικώς νεφελώδης 914 m
Κυρίως νεφελώδης 6096 m
2022/11/30 06:50 LTBJ 300650Z 00000KT 6000 SCT030 BKN200 09/09 Q1013 NOSIG
 
LDDU - Αεροδρόμιο στο Ντουμπρόβνικ
Ντουμπρόβνικ - Ντουμπρόβνικ Νερέτβα - Κροατία
Γ.Πλάτ: 42.5667 - Γ.Μήκ: 18.2667 - Υψόμ: 165μ
Απόσταση από το Vouhead Weather: (ΔΒΔ) 450χλμ
Ενημερώθηκε: 30/11/2022 09:00
Αίθριος
Αίθριος
 Άνεμος από ΒΒΑ
Άνεμος: ΒΒΑ 26 km/h
Θερμοκρασία: 10°C
Ψυχρότητα Ανέμου: 7°C
Σημείο δρόσου: -1°C
Υγρασία: 47%
Βαρόμετρο: 1011 hPa
Περίληψη: Αίθριος
Ορατότητα: πάνω από 10 km
2022/11/30 07:00 LDDU 300700Z 02014KT 320V090 CAVOK 10/M01 Q1011 TEMPO 02015G25KT
LYUZ - Αεροδρόμιο στην Ούζιτσε & Πόνικβε
(Ανεπίσημο όνομα αεροδρομίου: Λέπα Γκλάβα)
Ούζιτσε - Σουμαντίγια και Δ. Σερβία - Σερβία
Γ.Πλάτ: 43.9000 - Γ.Μήκ: 19.7000 - Υψόμ: 904μ
Απόσταση από το Vouhead Weather: (ΒΔ) 458χλμ
Ενημερώθηκε: 04/11/2021 01:30
ΜΗ ΠΡΟΣΦΑΤΟ METAR
Εντονα πτωτική
Εντονα πτωτική
 Άνεμος από Μεταβλητός
Άνεμος: Μεταβλητός 9 km/h
Θερμοκρασία: 14°C
Σημείο δρόσου: 7°C
Υγρασία: 63%
Βαρόμετρο: 1010 hPa
Ορατότητα: 10 km
2021/11/03 23:30 LYUZ 032330Z AUTO VRB05KT 9999 ////// 14/07 Q1010
 
LGSM - Αεροδρόμιο "Αρίσταρχος ο Σάμιος"
Σάμος - Βόρειο Αιγαίο - Ελλάδα
Γ.Πλάτ: 37.6833 - Γ.Μήκ: 26.9167 - Υψόμ: 6μ
Απόσταση από το Vouhead Weather: (ΝΑ) 467χλμ
Ενημερώθηκε: 30/11/2022 08:50
Μερικώς νεφελώδης
Μερικώς νεφελώδης
 Άνεμος από calm
Άνεμος: Απνοια
Θερμοκρασία: 14°C
Σημείο δρόσου: 11°C
Υγρασία: 82%
Βαρόμετρο: 1013 hPa
Σύννεφα: Μερικώς νεφελώδης
Ορατότητα: 10 km
Ανάλυση Νέφωσης: Μερικώς νεφελώδης 914 m
2022/11/30 06:50 LGSM 300650Z 00000KT 9999 SCT030 14/11 Q1013
LIBG - Αεροδρόμιο "Μαρτσέλο Αρλόττα"
Μουντιάζι(Ταράντο-Γκροτάλιε)-Απουλία(Ταράντο)-Ιταλία
Γ.Πλάτ: 40.5167 - Γ.Μήκ: 17.3833 - Υψόμ: 69μ
Απόσταση από το Vouhead Weather: (Δ) 472χλμ
Ενημερώθηκε: 29/11/2022 18:50
ΜΗ ΠΡΟΣΦΑΤΟ METAR
Μερικώς νεφελώδης
Μερικώς νεφελώδης
 Άνεμος από ΒΒΑ
Άνεμος: ΒΒΑ 7 km/h
Θερμοκρασία: 12°C
Σημείο δρόσου: 8°C
Υγρασία: 77%
Βαρόμετρο: 1011 hPa
Σύννεφα: Μερικώς νεφελώδης
Ορατότητα: 10 km
Ανάλυση Νέφωσης: Μερικώς νεφελώδης 1219 m
2022/11/29 16:50 LIBG 291650Z 03004KT 9999 SCT040 12/08 Q1011
 
LGKC - Αεροδρόμιο στα Κύθηρα
Κύθηρα(Επτάνησα) - Αττική(Νήσοι) - Ελλάδα
Γ.Πλάτ: 36.2833 - Γ.Μήκ: 23.0167 - Υψόμ: 319μ
Απόσταση από το Vouhead Weather: (Ν) 476χλμ
Ενημερώθηκε: 29/11/2022 14:50
ΜΗ ΠΡΟΣΦΑΤΟ METAR
Μερικώς νεφελώδης
Μερικώς νεφελώδης
 Άνεμος από ΑΒΑ
Άνεμος: ΑΒΑ 22 km/h
Θερμοκρασία: 14°C
Σημείο δρόσου: 10°C
Υγρασία: 77%
Βαρόμετρο: 1012 hPa
Σύννεφα: Μερικώς νεφελώδης
Ορατότητα: 10 km
Ανάλυση Νέφωσης: Μερικώς νεφελώδης 762 m
2022/11/29 12:50 LGKC 291250Z 06012KT 9999 SCT025 14/10 Q1012
LTBA - Αεροδρόμιο "Ατατούρκ"
Κωνσταντινούπολη - Μαρμαράς(Κων/πολη) - Τουρκία
Γ.Πλάτ: 40.9667 - Γ.Μήκ: 28.8167 - Υψόμ: 37μ
Απόσταση από το Vouhead Weather: (Α) 494χλμ
Ενημερώθηκε: 30/11/2022 08:50
Κυρίως νεφελώδης
Κυρίως νεφελώδης
 Άνεμος από ΒΑ
Άνεμος: ΒΑ 19 km/h
Θερμοκρασία: 14°C
Σημείο δρόσου: 12°C
Υγρασία: 88%
Βαρόμετρο: 1016 hPa
Σύννεφα: Κυρίως νεφελώδης
Ορατότητα: 10 km
Ανάλυση Νέφωσης: Μερικώς νεφελώδης 427 m
Κυρίως νεφελώδης 671 m
2022/11/30 06:50 LTBA 300650Z 05010KT 9999 SCT014 BKN022 14/12 Q1016
   Μην χρησιμοποιήσετε τα στοιχεία για αποφάσεις που αφορούν ζωές και πάσης φύσεως ιδιοκτησίες  
ΠΗΓΑΙΝΕΤΕ ΣΤΗΝ ΙΟΝΙΑ ΠΗΓΑΙΝΕΤΕ ΣΤΗΝ ΚΑΛΑΜΑΤΑ ΠΗΓΑΙΝΕΤΕ ΣΤΗΝ ΚΗΦΙΣΙΑ ΠΗΓΑΙΝΕΤΕ ΣΤΗΝ ΣΥΡΟ ΠΗΓΑΙΝΕΤΕ ΣΤΗΝ ΔΕΞΑΜΕΝΗ (BOLTEK) ΠΗΓΑΙΝΕΤΕ ΣΤΗΝ ΔΕΞΑΜΕΝΗ (LR) ΠΗΓΑΙΝΕΤΕ ΣΤΗΝ ΛΑΡΙΣΑ Γενική Γραμματεία Πολιτικής Προστασίας Ενιαίος Ευρωπαϊκός Αριθμός Έκτακτης Ανάγκης Βίντεο για το Καστελλόριζο(Μεγίστη) από τα αρχεία της ΕΡΤ Ιστοσελίδα Δήμου Μεγίστης Δείτε το μεγαλύτερο